createdAt,value
2023-12-29T00:01:57.012Z,61.82
2023-12-29T00:04:42.077Z,61.87
2023-12-29T00:07:27.316Z,62.59
2023-12-29T00:10:12.620Z,62.41
2023-12-29T00:12:57.642Z,65.40
2023-12-29T00:15:42.950Z,64.43
2023-12-29T00:18:27.911Z,63.88
2023-12-29T00:21:13.226Z,62.45
2023-12-29T00:23:58.387Z,61.41
2023-12-29T00:26:43.535Z,60.07
2023-12-29T00:29:28.511Z,59.78
2023-12-29T00:32:13.954Z,58.73
2023-12-29T00:34:59.223Z,58.42
2023-12-29T00:37:44.389Z,60.66
2023-12-29T00:40:29.311Z,62.30
2023-12-29T00:43:14.551Z,62.20
2023-12-29T00:45:59.680Z,61.47
2023-12-29T00:48:44.994Z,63.40
2023-12-29T00:51:30.117Z,63.80
2023-12-29T00:54:15.093Z,61.56
2023-12-29T00:57:00.248Z,61.58
2023-12-29T00:59:45.400Z,64.99
2023-12-29T01:02:30.526Z,64.89
2023-12-29T01:05:15.812Z,64.18
2023-12-29T01:08:01.556Z,63.89
2023-12-29T01:10:46.806Z,63.11
2023-12-29T01:13:31.910Z,62.79
2023-12-29T01:16:16.868Z,63.13
2023-12-29T01:19:02.059Z,63.01
2023-12-29T01:21:47.358Z,65.30
2023-12-29T01:24:39.902Z,64.07
2023-12-29T01:27:28.294Z,63.69
2023-12-29T01:30:13.627Z,63.85
2023-12-29T01:32:58.848Z,64.52
2023-12-29T01:35:43.780Z,64.26
2023-12-29T01:38:28.742Z,63.46
2023-12-29T01:41:13.907Z,63.20
2023-12-29T01:43:59.361Z,63.63
2023-12-29T01:46:44.358Z,64.77
2023-12-29T01:49:29.580Z,64.41
2023-12-29T01:52:14.675Z,65.21
2023-12-29T01:54:59.711Z,65.40
2023-12-29T01:57:45.054Z,64.26
2023-12-29T02:00:30.548Z,63.08
2023-12-29T02:03:15.870Z,65.80
2023-12-29T02:06:00.792Z,64.22
2023-12-29T02:08:45.946Z,65.17
2023-12-29T02:11:31.063Z,64.97
2023-12-29T02:14:16.049Z,66.20
2023-12-29T02:17:01.448Z,64.51
2023-12-29T02:19:46.878Z,65.68
2023-12-29T02:22:32.156Z,65.45
2023-12-29T02:25:17.062Z,66.29
2023-12-29T02:28:02.446Z,66.64
2023-12-29T02:30:47.864Z,68.35
2023-12-29T02:33:32.937Z,66.94
2023-12-29T02:36:18.939Z,67.56
2023-12-29T02:39:04.061Z,67.38
2023-12-29T02:41:49.137Z,67.29
2023-12-29T02:44:34.088Z,66.54
2023-12-29T02:47:19.322Z,67.95
2023-12-29T02:50:04.786Z,70.07
2023-12-29T02:52:50.027Z,68.19
2023-12-29T02:55:35.110Z,68.37
2023-12-29T02:58:20.147Z,67.73
2023-12-29T03:01:05.643Z,66.29
2023-12-29T03:03:50.909Z,66.17
2023-12-29T03:06:36.091Z,65.83
2023-12-29T03:09:21.247Z,66.27
2023-12-29T03:12:06.408Z,69.96
2023-12-29T03:14:51.695Z,68.14
2023-12-29T03:17:36.776Z,67.94
2023-12-29T03:20:21.863Z,67.66
2023-12-29T03:23:06.780Z,67.55
2023-12-29T03:25:52.607Z,69.26
2023-12-29T03:28:37.844Z,68.47
2023-12-29T03:31:23.372Z,69.02
2023-12-29T03:34:08.504Z,69.75
2023-12-29T03:36:53.680Z,70.30
2023-12-29T03:39:38.911Z,69.47
2023-12-29T03:42:24.123Z,68.34
2023-12-29T03:45:09.134Z,67.73
2023-12-29T03:47:54.725Z,67.81
2023-12-29T03:50:39.672Z,66.96
2023-12-29T03:53:24.850Z,66.73
2023-12-29T03:56:09.921Z,66.94
2023-12-29T03:58:55.187Z,69.87
2023-12-29T04:01:40.134Z,69.10
2023-12-29T04:04:25.141Z,68.25
2023-12-29T04:07:10.086Z,67.73
2023-12-29T04:09:55.188Z,66.91
2023-12-29T04:12:40.506Z,67.68
2023-12-29T04:15:25.567Z,68.92
2023-12-29T04:18:10.552Z,70.35
2023-12-29T04:20:55.846Z,73.68
2023-12-29T04:23:41.533Z,71.14
2023-12-29T04:26:26.490Z,72.46
2023-12-29T04:29:11.286Z,71.99
2023-12-29T04:31:56.551Z,69.70
2023-12-29T04:34:41.644Z,71.35
2023-12-29T04:37:26.493Z,69.57
2023-12-29T04:40:11.750Z,68.21
2023-12-29T04:42:57.128Z,66.82
2023-12-29T04:45:42.478Z,68.01
2023-12-29T04:48:27.506Z,68.80
2023-12-29T04:51:12.668Z,66.63
2023-12-29T04:53:57.685Z,67.08
2023-12-29T04:56:42.997Z,68.66
2023-12-29T04:59:27.952Z,68.51
2023-12-29T05:02:13.192Z,67.74
2023-12-29T05:04:58.434Z,70.16
2023-12-29T05:07:43.397Z,68.90
2023-12-29T05:10:28.763Z,68.85
2023-12-29T05:13:13.849Z,67.90
2023-12-29T05:15:58.815Z,68.56
2023-12-29T05:18:43.807Z,71.22
2023-12-29T05:21:29.260Z,72.86
2023-12-29T05:24:14.459Z,75.20
2023-12-29T05:26:59.331Z,76.99
2023-12-29T05:29:44.577Z,77.80
2023-12-29T05:32:29.833Z,77.27
2023-12-29T05:35:14.758Z,77.07
2023-12-29T05:38:00.122Z,77.91
2023-12-29T05:40:45.656Z,75.99
2023-12-29T05:43:30.992Z,75.57
2023-12-29T05:46:17.536Z,74.54
2023-12-29T05:49:02.750Z,73.91
2023-12-29T05:51:48.957Z,75.49
2023-12-29T05:54:35.189Z,74.48
2023-12-29T05:57:20.486Z,75.56
2023-12-29T06:00:05.552Z,76.03
2023-12-29T06:02:50.884Z,76.64
2023-12-29T06:05:35.745Z,75.68
2023-12-29T06:08:20.824Z,76.18
2023-12-29T06:11:06.074Z,74.06
2023-12-29T06:13:51.036Z,73.34
2023-12-29T06:16:36.004Z,71.88
2023-12-29T06:19:20.946Z,73.57
2023-12-29T06:22:06.270Z,73.25
2023-12-29T06:24:52.562Z,71.80
2023-12-29T06:27:37.729Z,70.01
2023-12-29T06:30:23.037Z,67.32
2023-12-29T06:33:11.119Z,63.50
2023-12-29T06:35:56.240Z,65.77
2023-12-29T06:38:41.318Z,63.00
2023-12-29T06:41:26.453Z,61.15
2023-12-29T06:44:11.651Z,60.50
2023-12-29T06:46:56.827Z,60.42
2023-12-29T06:49:42.172Z,62.08
2023-12-29T06:52:27.237Z,60.36
2023-12-29T06:55:12.506Z,63.71
2023-12-29T06:57:57.750Z,62.33
2023-12-29T07:00:44.486Z,62.20
2023-12-29T07:03:29.735Z,62.22
2023-12-29T07:06:14.864Z,62.95
2023-12-29T07:08:59.903Z,62.32
2023-12-29T07:11:45.068Z,61.35
2023-12-29T07:14:30.270Z,63.99
2023-12-29T07:17:15.299Z,62.04
2023-12-29T07:20:00.340Z,65.21
2023-12-29T07:22:45.522Z,65.54
2023-12-29T07:25:30.601Z,64.86
2023-12-29T07:28:15.868Z,64.38
2023-12-29T07:31:01.169Z,63.32
2023-12-29T07:33:46.545Z,64.24
2023-12-29T07:36:31.561Z,65.83
2023-12-29T07:39:16.687Z,67.46
2023-12-29T07:42:03.980Z,69.64
2023-12-29T07:44:48.785Z,66.29
2023-12-29T07:47:46.442Z,65.12
2023-12-29T07:50:44.083Z,64.47
2023-12-29T07:53:32.140Z,64.96
2023-12-29T07:56:17.346Z,64.86
2023-12-29T07:59:02.585Z,63.11
2023-12-29T08:01:47.940Z,67.79
2023-12-29T08:04:33.056Z,66.92
2023-12-29T08:07:18.357Z,65.41
2023-12-29T08:10:03.538Z,66.57
2023-12-29T08:12:48.685Z,65.04
2023-12-29T08:15:33.926Z,65.63
2023-12-29T08:18:19.198Z,65.37
2023-12-29T08:21:04.184Z,66.71
2023-12-29T08:23:49.348Z,65.37
2023-12-29T08:26:34.415Z,65.77
2023-12-29T08:29:19.442Z,66.40
2023-12-29T08:32:04.801Z,66.58
2023-12-29T08:34:50.030Z,66.19
2023-12-29T08:37:35.002Z,65.08
2023-12-29T08:40:19.966Z,65.27
2023-12-29T08:43:04.894Z,67.16
2023-12-29T08:45:50.159Z,64.89
2023-12-29T08:48:35.368Z,66.63
2023-12-29T08:51:20.496Z,64.69
2023-12-29T08:54:05.589Z,63.76
2023-12-29T08:56:50.681Z,65.20
2023-12-29T08:59:35.843Z,65.89
2023-12-29T09:02:20.978Z,65.58
2023-12-29T09:05:05.842Z,65.01
2023-12-29T09:07:50.889Z,63.54
2023-12-29T09:10:35.976Z,63.96
2023-12-29T09:13:21.236Z,65.74
2023-12-29T09:16:06.730Z,63.27
2023-12-29T09:18:51.726Z,62.20
2023-12-29T09:21:36.849Z,61.77
2023-12-29T09:24:22.044Z,61.08
2023-12-29T09:27:07.165Z,63.30
2023-12-29T09:29:52.337Z,63.48
2023-12-29T09:32:37.531Z,65.88
2023-12-29T09:35:22.703Z,64.54
2023-12-29T09:38:08.020Z,63.92
2023-12-29T09:40:53.168Z,63.47
2023-12-29T09:43:38.045Z,63.06
2023-12-29T09:46:23.348Z,63.83
2023-12-29T09:49:08.462Z,63.60
2023-12-29T09:51:53.498Z,63.09
2023-12-29T09:54:38.765Z,64.29
2023-12-29T09:57:23.916Z,64.22
2023-12-29T10:00:09.129Z,65.23
2023-12-29T10:02:54.483Z,64.03
2023-12-29T10:05:41.783Z,64.11
2023-12-29T10:08:26.937Z,64.28
2023-12-29T10:11:11.967Z,67.11
2023-12-29T10:13:56.967Z,67.32
2023-12-29T10:16:42.273Z,67.12
2023-12-29T10:19:27.166Z,67.87
2023-12-29T10:22:12.376Z,68.80
2023-12-29T10:24:57.524Z,68.84
2023-12-29T10:27:42.746Z,67.25
2023-12-29T10:30:31.866Z,68.20
2023-12-29T10:33:20.764Z,69.11
2023-12-29T10:36:05.584Z,66.40
2023-12-29T10:38:50.798Z,64.79
2023-12-29T10:41:35.962Z,66.76
2023-12-29T10:44:21.276Z,67.02
2023-12-29T10:47:06.204Z,66.67
2023-12-29T10:49:51.466Z,66.37
2023-12-29T10:52:36.543Z,65.55
2023-12-29T10:55:21.786Z,65.37
2023-12-29T10:58:07.142Z,63.93
2023-12-29T11:00:52.770Z,64.81
2023-12-29T11:03:40.498Z,64.64
2023-12-29T11:06:25.477Z,64.30
2023-12-29T11:09:10.562Z,65.90
2023-12-29T11:11:55.607Z,66.41
2023-12-29T11:14:40.793Z,66.45
2023-12-29T11:17:26.124Z,64.97
2023-12-29T11:20:11.168Z,65.96
2023-12-29T11:22:56.288Z,65.54
2023-12-29T11:25:41.371Z,64.58
2023-12-29T11:28:26.451Z,65.13
2023-12-29T11:31:11.660Z,66.04
2023-12-29T11:33:56.747Z,65.34
2023-12-29T11:36:42.037Z,67.20
2023-12-29T11:39:27.097Z,66.18
2023-12-29T11:42:12.255Z,67.12
2023-12-29T11:44:57.325Z,65.81
2023-12-29T11:47:42.524Z,66.21
2023-12-29T11:50:27.865Z,66.25
2023-12-29T11:53:12.753Z,65.00
2023-12-29T11:55:57.755Z,65.28
2023-12-29T11:58:42.817Z,65.36
2023-12-29T12:01:28.069Z,64.64
2023-12-29T12:04:13.164Z,63.10
2023-12-29T12:06:58.436Z,63.45
2023-12-29T12:09:45.726Z,63.37
2023-12-29T12:12:31.725Z,63.37
2023-12-29T12:15:16.589Z,63.50
2023-12-29T12:18:01.909Z,62.92
2023-12-29T12:20:46.943Z,64.38
2023-12-29T12:23:32.233Z,63.31
2023-12-29T12:26:17.122Z,61.51
2023-12-29T12:29:02.223Z,59.29
2023-12-29T12:31:47.410Z,60.77
2023-12-29T12:34:32.753Z,61.36
2023-12-29T12:37:17.960Z,61.39
2023-12-29T12:40:03.166Z,60.35
2023-12-29T12:42:48.035Z,62.01
2023-12-29T12:45:33.097Z,61.09
2023-12-29T12:48:18.378Z,57.97
2023-12-29T12:51:03.611Z,58.07
2023-12-29T12:53:48.359Z,57.50
2023-12-29T12:56:33.652Z,58.84
2023-12-29T12:59:18.454Z,58.74
2023-12-29T13:02:03.836Z,59.36
2023-12-29T13:04:49.371Z,58.50
2023-12-29T13:07:34.648Z,61.45
2023-12-29T13:10:19.652Z,60.68
2023-12-29T13:13:05.076Z,61.39
2023-12-29T13:15:50.445Z,63.73
2023-12-29T13:18:35.346Z,62.30
2023-12-29T13:21:20.368Z,61.83
2023-12-29T13:24:05.417Z,62.96
2023-12-29T13:26:50.558Z,60.22
2023-12-29T13:29:35.626Z,60.72
2023-12-29T13:32:20.898Z,60.67
2023-12-29T13:35:06.250Z,61.81
2023-12-29T13:37:51.454Z,62.48
2023-12-29T13:40:36.487Z,61.22
2023-12-29T13:43:21.369Z,61.05
2023-12-29T13:46:06.579Z,59.88
2023-12-29T13:48:51.728Z,60.35
2023-12-29T13:51:36.926Z,59.93
2023-12-29T13:54:22.093Z,59.44
2023-12-29T13:57:07.165Z,59.07
2023-12-29T13:59:52.438Z,59.88
2023-12-29T14:02:37.542Z,61.04
2023-12-29T14:05:22.848Z,61.40
2023-12-29T14:08:07.881Z,60.00
2023-12-29T14:10:53.121Z,59.84
2023-12-29T14:13:38.033Z,60.55
2023-12-29T14:16:23.060Z,62.97
2023-12-29T14:19:08.435Z,60.80
2023-12-29T14:21:53.531Z,60.82
2023-12-29T14:24:38.712Z,60.16
2023-12-29T14:27:23.884Z,61.46
2023-12-29T14:30:09.077Z,61.95
2023-12-29T14:32:54.182Z,60.40
2023-12-29T14:35:39.282Z,60.39
2023-12-29T14:38:24.480Z,61.10
2023-12-29T14:41:09.611Z,60.42
2023-12-29T14:43:54.812Z,60.12
2023-12-29T14:46:39.941Z,58.94
2023-12-29T14:49:24.986Z,58.38
2023-12-29T14:52:10.081Z,60.53
2023-12-29T14:54:55.200Z,58.72
2023-12-29T14:57:40.410Z,58.19
2023-12-29T15:00:25.340Z,58.85
2023-12-29T15:03:10.340Z,58.79
2023-12-29T15:05:56.579Z,59.84
2023-12-29T15:08:42.397Z,58.99
2023-12-29T15:11:27.251Z,58.31
2023-12-29T15:14:12.418Z,58.52
2023-12-29T15:16:57.738Z,62.31
2023-12-29T15:19:42.600Z,60.72
2023-12-29T15:22:27.879Z,61.61
2023-12-29T15:25:13.065Z,63.04
2023-12-29T15:27:58.314Z,63.65
2023-12-29T15:30:43.358Z,64.36
2023-12-29T15:33:28.607Z,64.46
2023-12-29T15:36:13.756Z,63.46
2023-12-29T15:38:58.697Z,64.24
2023-12-29T15:41:43.956Z,63.80
2023-12-29T15:44:29.103Z,65.45
2023-12-29T15:47:14.329Z,63.32
2023-12-29T15:49:59.581Z,63.06
2023-12-29T15:52:44.633Z,61.49
2023-12-29T15:55:29.782Z,61.13
2023-12-29T15:58:14.982Z,61.54
2023-12-29T16:01:00.399Z,61.69
2023-12-29T16:03:45.530Z,62.75
2023-12-29T16:06:30.836Z,62.31
2023-12-29T16:09:15.839Z,61.09
2023-12-29T16:12:00.989Z,63.10
2023-12-29T16:14:46.279Z,60.74
2023-12-29T16:17:31.237Z,60.37
2023-12-29T16:20:16.599Z,59.47
2023-12-29T16:23:01.570Z,59.08
2023-12-29T16:25:46.707Z,58.63
2023-12-29T16:28:32.927Z,60.09
2023-12-29T16:31:18.016Z,63.80
2023-12-29T16:34:03.229Z,62.91
2023-12-29T16:36:48.373Z,62.17
2023-12-29T16:39:33.543Z,60.66
2023-12-29T16:42:18.692Z,61.98
2023-12-29T16:45:06.948Z,61.39
2023-12-29T16:47:52.156Z,62.67
2023-12-29T16:50:37.358Z,60.65
2023-12-29T16:53:22.477Z,61.92
2023-12-29T16:56:07.668Z,63.01
2023-12-29T16:58:52.816Z,61.18
2023-12-29T17:01:38.470Z,61.71
2023-12-29T17:04:26.281Z,63.92
2023-12-29T17:07:11.257Z,64.28
2023-12-29T17:09:56.536Z,66.62
2023-12-29T17:12:42.053Z,69.95
2023-12-29T17:15:26.990Z,72.27
2023-12-29T17:18:12.301Z,73.18
2023-12-29T17:20:57.534Z,73.50
2023-12-29T17:23:43.839Z,71.86
2023-12-29T17:26:33.188Z,70.23
2023-12-29T17:29:17.992Z,68.00
2023-12-29T17:32:05.499Z,69.19
2023-12-29T17:34:55.463Z,68.12
2023-12-29T17:37:41.514Z,68.78
2023-12-29T17:40:26.999Z,67.54
2023-12-29T17:43:12.358Z,67.53
2023-12-29T17:45:57.211Z,69.36
2023-12-29T17:48:42.475Z,69.27
2023-12-29T17:51:27.767Z,68.99
2023-12-29T17:54:15.406Z,70.02
2023-12-29T17:57:00.787Z,72.33
2023-12-29T17:59:45.832Z,71.38
2023-12-29T18:05:34.241Z,67.70
2023-12-29T18:11:18.321Z,65.96
2023-12-29T18:14:06.035Z,67.77
2023-12-29T18:16:51.015Z,68.56
2023-12-29T18:19:36.074Z,67.59
2023-12-29T18:22:21.641Z,69.04
2023-12-29T18:25:07.078Z,70.95
2023-12-29T18:27:55.067Z,71.59
2023-12-29T18:30:40.233Z,69.65
2023-12-29T18:33:27.587Z,69.27
2023-12-29T18:36:13.583Z,70.89
2023-12-29T18:38:58.484Z,70.15
2023-12-29T18:41:47.207Z,67.68
2023-12-29T18:44:32.759Z,67.71
2023-12-29T18:47:25.935Z,70.04
2023-12-29T18:50:11.404Z,72.03
2023-12-29T18:52:56.577Z,69.05
2023-12-29T18:55:44.215Z,66.20
2023-12-29T18:58:29.230Z,69.17
2023-12-29T19:01:14.415Z,67.78
2023-12-29T19:03:59.662Z,68.80
2023-12-29T19:06:44.831Z,68.90
2023-12-29T19:09:29.996Z,67.05
2023-12-29T19:12:15.373Z,64.99
2023-12-29T19:15:00.445Z,68.32
2023-12-29T19:17:45.695Z,70.12
2023-12-29T19:20:31.038Z,73.45
2023-12-29T19:23:15.882Z,71.36
2023-12-29T19:26:00.902Z,70.37
2023-12-29T19:28:46.097Z,72.38
2023-12-29T19:31:31.206Z,71.79
2023-12-29T19:34:16.324Z,69.34
2023-12-29T19:37:01.495Z,67.67
2023-12-29T19:39:47.889Z,68.74
2023-12-29T19:42:33.199Z,67.43
2023-12-29T19:45:21.491Z,68.62
2023-12-29T19:48:09.242Z,69.38
2023-12-29T19:50:54.200Z,72.83
2023-12-29T19:53:39.398Z,73.30
2023-12-29T19:56:24.740Z,72.38
2023-12-29T19:59:09.762Z,71.57
2023-12-29T20:01:54.870Z,72.64
2023-12-29T20:04:40.030Z,71.87
2023-12-29T20:07:25.421Z,72.02
2023-12-29T20:10:10.708Z,70.64
2023-12-29T20:12:56.095Z,69.77
2023-12-29T20:15:41.212Z,69.12
2023-12-29T20:18:26.411Z,68.49
2023-12-29T20:21:11.774Z,65.68
2023-12-29T20:23:56.806Z,65.96
2023-12-29T20:26:42.021Z,65.67
2023-12-29T20:29:27.056Z,65.68
2023-12-29T20:32:12.258Z,64.71
2023-12-29T20:34:57.382Z,65.23
2023-12-29T20:37:42.189Z,64.54
2023-12-29T20:40:27.543Z,64.68
2023-12-29T20:43:14.147Z,65.39
2023-12-29T20:45:59.347Z,65.03
2023-12-29T20:48:44.271Z,65.43
2023-12-29T20:51:30.060Z,65.33
2023-12-29T20:54:15.097Z,64.18
2023-12-29T20:57:00.191Z,63.93
2023-12-29T20:59:45.249Z,65.46
2023-12-29T21:02:30.314Z,69.57
2023-12-29T21:05:17.926Z,68.46
2023-12-29T21:08:04.257Z,67.38
2023-12-29T21:10:49.266Z,67.60
2023-12-29T21:13:34.593Z,70.39
2023-12-29T21:16:20.027Z,72.02
2023-12-29T21:19:05.450Z,71.43
2023-12-29T21:21:50.587Z,72.48
2023-12-29T21:24:37.768Z,70.98
2023-12-29T21:27:22.879Z,73.50
2023-12-29T21:30:08.122Z,71.12
2023-12-29T21:32:53.967Z,73.17
2023-12-29T21:35:39.228Z,72.61
2023-12-29T21:38:24.302Z,74.45
2023-12-29T21:41:09.506Z,74.78
2023-12-29T21:46:53.471Z,74.88
2023-12-29T21:49:38.422Z,73.85
2023-12-29T21:52:23.719Z,71.31
2023-12-29T21:55:08.635Z,70.07
2023-12-29T21:57:54.271Z,68.62
2023-12-29T22:00:39.487Z,68.00
2023-12-29T22:03:24.930Z,68.70
2023-12-29T22:06:09.890Z,69.53
2023-12-29T22:08:55.170Z,68.91
2023-12-29T22:11:39.904Z,67.91
2023-12-29T22:14:25.202Z,68.86
2023-12-29T22:17:10.290Z,69.38
2023-12-29T22:19:55.652Z,68.89
2023-12-29T22:22:40.624Z,69.06
2023-12-29T22:25:27.436Z,68.58
2023-12-29T22:28:13.015Z,67.50
2023-12-29T22:30:58.318Z,66.59
2023-12-29T22:33:43.743Z,67.47
2023-12-29T22:36:28.862Z,67.74
2023-12-29T22:39:13.877Z,68.20
2023-12-29T22:41:59.088Z,68.11
2023-12-29T22:44:44.665Z,67.69
2023-12-29T22:47:29.866Z,68.32
2023-12-29T22:50:14.950Z,69.85
2023-12-29T22:53:00.501Z,70.09
2023-12-29T22:55:46.142Z,68.13
2023-12-29T22:58:31.179Z,67.34
2023-12-29T23:01:16.408Z,67.20
2023-12-29T23:04:01.465Z,66.22
2023-12-29T23:06:46.589Z,67.22
2023-12-29T23:09:31.649Z,67.28
2023-12-29T23:12:16.803Z,67.09
2023-12-29T23:15:01.792Z,66.88
2023-12-29T23:17:46.998Z,66.90
2023-12-29T23:20:32.090Z,66.04
2023-12-29T23:23:17.419Z,65.92
2023-12-29T23:26:03.625Z,65.76
2023-12-29T23:28:50.262Z,66.13
2023-12-29T23:31:35.260Z,67.07
2023-12-29T23:34:20.450Z,65.78
2023-12-29T23:37:08.673Z,65.72
2023-12-29T23:39:53.807Z,67.70
2023-12-29T23:42:38.847Z,67.48
2023-12-29T23:45:25.390Z,67.86
2023-12-29T23:48:10.902Z,68.39
2023-12-29T23:50:55.988Z,70.48
2023-12-29T23:53:45.451Z,69.26
2023-12-29T23:56:36.888Z,67.93
2023-12-29T23:59:24.560Z,70.54
